Time;durP1;ratioP1;P1;durP2;ratioP2;P2;SDS_P1;SDS_P2;PMS_P1;PMS_P2;Temp;Humidity;BMP_temperature;BMP_pressure;BME280_temperature;BME280_humidity;BME280_pressure;Samples;Min_cycle;Max_cycle;Signal;HPM_P1;HPM_P2
2021/11/24 00:00:06;;;;;;;124.95;84.05;;;231.00;2252.80;;;;;;4994360;28;20037;-72
2021/11/24 00:02:32;;;;;;;138.70;94.95;;;230.80;2252.80;;;;;;4994245;28;20161;-72
2021/11/24 00:04:58;;;;;;;121.63;82.78;;;230.70;2252.80;;;;;;4994264;28;20097;-72
2021/11/24 00:07:24;;;;;;;141.50;95.60;;;230.80;2252.80;;;;;;4994585;28;20096;-72
2021/11/24 00:09:50;;;;;;;131.75;89.75;;;231.00;2252.80;;;;;;4994290;28;20422;-70
2021/11/24 00:12:15;;;;;;;134.35;90.88;;;230.90;2252.80;;;;;;4994106;28;20128;-72
2021/11/24 00:14:41;;;;;;;141.32;96.00;;;230.80;2252.80;;;;;;4994233;28;20034;-72
2021/11/24 00:17:07;;;;;;;130.85;84.88;;;230.90;2252.80;;;;;;4994086;28;20161;-72
2021/11/24 00:19:33;;;;;;;135.88;86.03;;;230.90;2252.80;;;;;;4994031;28;20057;-71
2021/11/24 00:21:58;;;;;;;100.32;67.35;;;230.90;2252.80;;;;;;4993872;28;20026;-72
2021/11/24 00:24:24;;;;;;;94.55;59.45;;;230.90;2252.80;;;;;;4993993;28;20026;-71
2021/11/24 00:26:50;;;;;;;96.93;64.22;;;230.80;2252.80;;;;;;4994043;28;20033;-72
2021/11/24 00:29:15;;;;;;;99.85;64.43;;;230.90;2252.80;;;;;;4994206;28;20026;-72
2021/11/24 00:31:41;;;;;;;112.50;75.80;;;230.90;2252.80;;;;;;4993808;28;20553;-72
2021/11/24 00:34:07;;;;;;;84.38;56.13;;;230.90;2252.80;;;;;;4993567;28;20023;-73
2021/11/24 00:36:34;;;;;;;80.75;53.75;;;;;;;;;;4993908;28;20030;-76
2021/11/24 00:39:00;;;;;;;73.57;48.50;;;;;;;;;;4993572;28;20056;-75
2021/11/24 00:41:25;;;;;;;72.40;49.83;;;230.90;2252.80;;;;;;4993687;28;20056;-73
2021/11/24 00:43:51;;;;;;;78.18;52.65;;;231.10;2252.80;;;;;;4993744;28;20019;-74
2021/11/24 00:46:17;;;;;;;83.22;56.22;;;;;;;;;;4993362;28;20050;-75
2021/11/24 00:48:43;;;;;;;99.65;61.75;;;231.00;2252.80;;;;;;4993668;28;20062;-74
2021/11/24 00:51:09;;;;;;;102.13;61.58;;;231.00;2252.80;;;;;;4993480;28;20042;-73
2021/11/24 00:53:35;;;;;;;95.57;60.83;;;231.00;2252.80;;;;;;4993445;28;20462;-72
2021/11/24 00:56:04;;;;;;;95.30;62.20;;;;;;;;;;4993554;28;20034;-70
2021/11/24 00:58:30;;;;;;;105.53;69.05;;;;;;;;;;4993557;28;20050;-75
2021/11/24 01:00:56;;;;;;;94.05;61.72;;;;;;;;;;4993535;28;20030;-73
2021/11/24 01:03:22;;;;;;;84.53;56.33;;;230.90;2252.80;;;;;;4993594;28;20034;-71
2021/11/24 01:05:47;;;;;;;88.32;59.03;;;230.90;2252.80;;;;;;4993450;28;20022;-72
2021/11/24 01:08:15;;;;;;;93.13;59.58;;;230.90;2252.80;;;;;;4993273;28;20034;-72
2021/11/24 01:10:42;;;;;;;87.90;59.78;;;231.10;2252.80;;;;;;4993322;28;20038;-73
2021/11/24 01:13:08;;;;;;;89.85;58.20;;;231.10;2252.80;;;;;;4993503;28;20069;-74
2021/11/24 01:15:34;;;;;;;89.05;57.85;;;231.20;2252.80;;;;;;4993275;28;20084;-74
2021/11/24 01:18:00;;;;;;;86.60;56.78;;;231.10;2252.80;;;;;;4993292;28;20473;-72
2021/11/24 01:20:25;;;;;;;88.15;56.80;;;231.10;2252.80;;;;;;4993279;28;20051;-72
2021/11/24 01:22:51;;;;;;;84.80;56.88;;;231.10;2252.80;;;;;;4993295;28;20400;-73
2021/11/24 01:25:17;;;;;;;92.97;59.33;;;231.00;2252.80;;;;;;4993303;28;20031;-73
2021/11/24 01:27:43;;;;;;;88.18;57.78;;;230.80;2252.80;;;;;;4993316;28;20077;-73
2021/11/24 01:30:12;;;;;;;108.35;72.15;;;230.90;2252.80;;;;;;4993125;28;20033;-73
2021/11/24 01:32:38;;;;;;;109.05;70.70;;;230.90;2252.80;;;;;;4993381;28;20072;-73
2021/11/24 01:35:06;;;;;;;93.28;61.30;;;230.90;2252.80;;;;;;4993173;28;20030;-73
2021/11/24 01:37:33;;;;;;;94.38;61.75;;;230.90;2252.80;;;;;;4993062;28;20500;-72
2021/11/24 01:40:00;;;;;;;97.75;63.80;;;230.90;2252.80;;;;;;4993203;28;20080;-73
2021/11/24 01:42:26;;;;;;;128.65;84.18;;;230.80;2252.80;;;;;;4993286;28;20034;-73
2021/11/24 01:44:52;;;;;;;124.10;80.13;;;230.80;2252.80;;;;;;4993155;28;20027;-72
2021/11/24 01:47:18;;;;;;;121.03;81.13;;;230.90;2252.80;;;;;;4996274;28;20460;-72
2021/11/24 01:49:44;;;;;;;123.50;79.20;;;230.90;2252.80;;;;;;4996876;28;20030;-72
2021/11/24 01:52:10;;;;;;;102.70;68.47;;;231.00;2252.80;;;;;;4996694;28;20501;-73
2021/11/24 01:54:36;;;;;;;96.88;65.57;;;231.00;2252.80;;;;;;4996907;28;20087;-73
2021/11/24 01:57:02;;;;;;;107.38;69.20;;;230.90;2252.80;;;;;;4996751;28;20034;-71
2021/11/24 01:59:28;;;;;;;102.47;67.55;;;230.90;2252.80;;;;;;4996732;28;20377;-71
2021/11/24 02:01:55;;;;;;;105.18;69.97;;;231.00;2252.80;;;;;;4996691;28;20034;-72
2021/11/24 02:04:21;;;;;;;105.75;70.82;;;;;;;;;;4996499;28;20097;-72
2021/11/24 02:06:48;;;;;;;102.60;66.75;;;;;;;;;;4996822;28;20038;-73
2021/11/24 02:09:14;;;;;;;107.97;68.53;;;;;;;;;;4996320;28;20358;-69
2021/11/24 02:11:42;;;;;;;97.57;62.17;;;205.30;2252.80;;;;;;4996384;28;20508;-69
2021/11/24 02:14:09;;;;;;;97.97;62.75;;;205.30;2252.80;;;;;;4996750;28;20383;-72
2021/11/24 02:16:49;;;;;;;99.95;63.03;;;205.40;2252.80;;;;;;4996611;28;20480;-74
2021/11/24 02:19:16;;;;;;;106.70;65.57;;;205.70;2252.80;;;;;;4996245;28;20030;-74
2021/11/24 02:21:53;;;;;;;98.28;64.50;;;;;;;;;;4996172;28;20030;-74
2021/11/24 02:24:23;;;;;;;97.38;63.40;;;205.70;2252.80;;;;;;4996567;28;20029;-71
2021/11/24 02:26:49;;;;;;;102.47;66.50;;;;;;;;;;4996177;28;20026;-73
2021/11/24 02:29:15;;;;;;;102.72;64.50;;;;;;;;;;4996111;28;20034;-73
2021/11/24 02:31:46;;;;;;;98.10;63.80;;;205.20;2252.80;;;;;;4996065;28;20038;-71
2021/11/24 02:34:12;;;;;;;97.47;60.45;;;205.00;2252.80;;;;;;4996042;28;20029;-70
2021/11/24 02:36:38;;;;;;;95.07;62.35;;;205.20;2252.80;;;;;;4995841;28;20128;-72
2021/11/24 02:39:04;;;;;;;94.10;64.28;;;205.40;2252.80;;;;;;4995786;28;20460;-72
2021/11/24 02:41:30;;;;;;;103.25;66.95;;;205.70;2252.80;;;;;;4996157;28;20491;-72
2021/11/24 02:43:57;;;;;;;98.25;61.42;;;205.60;2252.80;;;;;;4996145;28;20065;-73
2021/11/24 02:46:24;;;;;;;111.05;67.43;;;205.70;2252.80;;;;;;4995768;28;20125;-73
2021/11/24 02:48:51;;;;;;;110.53;69.05;;;205.70;2252.80;;;;;;4995795;28;20394;-71
2021/11/24 02:51:17;;;;;;;109.75;71.10;;;205.60;2252.80;;;;;;4995429;28;20031;-71
2021/11/24 02:53:43;;;;;;;115.75;73.70;;;;;;;;;;4996095;28;20026;-72
2021/11/24 02:56:09;;;;;;;166.25;104.65;;;;;;;;;;4995572;28;20109;-72
2021/11/24 02:58:35;;;;;;;139.38;88.68;;;;;;;;;;4995656;28;20122;-73
2021/11/24 03:01:03;;;;;;;113.00;72.88;;;;;;;;;;4994331;28;20031;-71
2021/11/24 03:03:29;;;;;;;114.13;72.22;;;;;;;;;;4995508;28;20034;-72
2021/11/24 03:05:55;;;;;;;100.20;64.15;;;;;;;;;;4995309;28;20027;-72
2021/11/24 03:08:21;;;;;;;117.80;71.00;;;;;;;;;;4995587;28;20045;-71
2021/11/24 03:10:48;;;;;;;107.88;68.38;;;;;;;;;;4995243;28;20070;-72
2021/11/24 03:13:14;;;;;;;109.68;68.25;;;;;;;;;;4995301;28;20030;-72
2021/11/24 03:15:40;;;;;;;110.88;74.95;;;;;;;;;;4995425;28;20030;-72
2021/11/24 03:18:06;;;;;;;144.80;98.45;;;;;;;;;;4995324;28;20049;-72
2021/11/24 03:20:32;;;;;;;116.70;76.43;;;;;;;;;;4995051;28;20026;-74
2021/11/24 03:22:59;;;;;;;88.43;57.00;;;;;;;;;;4995259;28;20516;-74
2021/11/24 03:25:25;;;;;;;89.25;56.58;;;;;;;;;;4995009;28;20073;-72
2021/11/24 03:27:51;;;;;;;84.95;56.63;;;;;;;;;;4995103;28;20022;-73
2021/11/24 03:30:19;;;;;;;84.90;54.72;;;;;;;;;;4994893;28;20034;-73
2021/11/24 03:32:45;;;;;;;78.88;50.72;;;;;;;;;;4995023;28;20034;-73
2021/11/24 03:35:11;;;;;;;70.78;49.22;;;;;;;;;;4994808;28;20109;-72
2021/11/24 03:37:37;;;;;;;79.70;50.42;;;179.90;2252.80;;;;;;4994866;28;20061;-72
2021/11/24 03:40:05;;;;;;;79.25;53.22;;;;;;;;;;4994849;28;20025;-72
2021/11/24 03:42:33;;;;;;;65.80;45.55;;;;;;;;;;4994729;28;20030;-70
2021/11/24 03:44:59;;;;;;;70.05;46.63;;;;;;;;;;4994652;28;20149;-72
2021/11/24 03:47:25;;;;;;;70.43;45.47;;;;;;;;;;4994300;28;20050;-72
2021/11/24 03:49:51;;;;;;;76.22;51.13;;;;;;;;;;4994905;28;20034;-71
2021/11/24 03:52:17;;;;;;;79.55;52.08;;;;;;;;;;4994608;28;20065;-73
2021/11/24 03:54:43;;;;;;;93.10;57.97;;;;;;;;;;4994716;28;20022;-71
2021/11/24 03:57:09;;;;;;;96.43;60.10;;;179.40;2252.80;;;;;;4994619;28;20494;-70
2021/11/24 03:59:35;;;;;;;70.00;48.22;;;179.50;2252.80;;;;;;4994486;28;20022;-71
2021/11/24 04:02:01;;;;;;;67.57;45.13;;;;;;;;;;4993712;28;20041;-72
2021/11/24 04:04:27;;;;;;;75.93;48.42;;;;;;;;;;4994373;28;20106;-71
2021/11/24 04:06:53;;;;;;;74.40;48.20;;;;;;;;;;4994144;28;20030;-72
2021/11/24 04:09:19;;;;;;;59.28;38.88;;;;;;;;;;4993944;28;20033;-71
2021/11/24 04:11:45;;;;;;;57.70;39.85;;;;;;;;;;4994171;28;20041;-71
2021/11/24 04:14:11;;;;;;;59.20;37.28;;;;;;;;;;4994299;28;20080;-71
2021/11/24 04:16:38;;;;;;;53.72;38.10;;;;;;;;;;4994319;28;20529;-72
2021/11/24 04:19:04;;;;;;;58.65;36.72;;;;;;;;;;4994087;28;20069;-72
2021/11/24 04:21:30;;;;;;;58.92;39.03;;;;;;;;;;4993919;28;20054;-72
2021/11/24 04:23:57;;;;;;;54.63;34.53;;;;;;;;;;4994044;28;20019;-73
2021/11/24 04:26:23;;;;;;;46.75;32.97;;;;;;;;;;4994061;28;20034;-73
2021/11/24 04:28:49;;;;;;;50.55;34.58;;;;;;;;;;4993884;28;20022;-72
2021/11/24 04:31:15;;;;;;;50.47;35.13;;;180.10;2252.80;;;;;;4993647;28;20119;-72
2021/11/24 04:33:41;;;;;;;53.97;35.47;;;180.10;2252.80;;;;;;4993917;28;20066;-71
2021/11/24 04:36:07;;;;;;;48.20;34.05;;;179.80;2252.80;;;;;;4993587;28;20432;-71
2021/11/24 04:38:33;;;;;;;50.45;33.78;;;179.90;2252.80;;;;;;4976322;28;20038;-71
2021/11/24 04:40:59;;;;;;;40.25;29.83;;;;;;;;;;4993720;28;20061;-72
2021/11/24 04:43:30;;;;;;;42.78;26.67;;;;;;;;;;4993682;28;20066;-73
2021/11/24 04:45:56;;;;;;;38.15;26.85;;;;;;;;;;4993679;28;20404;-73
2021/11/24 04:48:23;;;;;;;42.33;27.25;;;;;;;;;;4993711;28;20038;-73
2021/11/24 04:50:49;;;;;;;41.80;27.15;;;;;;;;;;4993448;28;20023;-73
2021/11/24 04:53:15;;;;;;;40.83;28.35;;;;;;;;;;4993842;28;20027;-73
2021/11/24 04:55:41;;;;;;;47.78;31.75;;;;;;;;;;4993641;28;20105;-73
2021/11/24 04:58:07;;;;;;;43.08;30.98;;;;;;;;;;4993563;28;20030;-72
2021/11/24 05:00:33;;;;;;;49.33;31.90;;;;;;;;;;4993607;28;20488;-74
2021/11/24 05:02:59;;;;;;;53.95;34.42;;;154.20;2252.80;;;;;;4993605;28;20034;-72
2021/11/24 05:05:29;;;;;;;53.17;35.20;;;;;;;;;;4993370;28;20022;-74
2021/11/24 05:07:56;;;;;;;57.28;39.42;;;179.60;2252.80;;;;;;4993527;28;20069;-71
2021/11/24 05:10:23;;;;;;;75.00;47.28;;;179.50;2252.80;;;;;;4993370;28;20068;-72
2021/11/24 05:12:50;;;;;;;82.40;49.97;;;;;;;;;;4993646;28;20096;-73
2021/11/24 05:15:25;;;;;;;70.35;45.67;;;;;;;;;;4993229;28;20105;-72
2021/11/24 05:17:57;;;;;;;74.20;44.83;;;;;;;;;;4993361;28;20041;-73
2021/11/24 05:20:25;;;;;;;66.20;41.58;;;154.40;2252.80;;;;;;4994233;28;20019;-72
2021/11/24 05:22:53;;;;;;;78.03;48.83;;;154.20;2252.80;;;;;;4997244;28;20030;-72
2021/11/24 05:25:19;;;;;;;71.85;45.75;;;;;;;;;;4997254;28;20022;-73
2021/11/24 05:27:45;;;;;;;66.60;43.67;;;;;;;;;;4997160;28;20038;-73
2021/11/24 05:30:12;;;;;;;65.85;43.10;;;;;;;;;;4997084;28;20536;-73
2021/11/24 05:32:38;;;;;;;66.07;43.00;;;;;;;;;;4997433;28;20066;-73
2021/11/24 05:35:05;;;;;;;64.68;40.95;;;;;;;;;;4997283;28;20448;-72
2021/11/24 05:37:31;;;;;;;66.57;43.85;;;;;;;;;;4997306;28;20022;-74
2021/11/24 05:39:58;;;;;;;67.65;43.25;;;;;;;;;;4997235;28;20081;-73
2021/11/24 05:42:26;;;;;;;68.85;44.60;;;;;;;;;;4997083;28;20027;-72
2021/11/24 05:45:02;;;;;;;71.70;43.78;;;;;;;;;;4996965;28;20058;-72
2021/11/24 05:50:13;;;;;;;54.80;38.53;;;;;;;;;;4996759;28;20037;-72
2021/11/24 05:52:39;;;;;;;65.88;41.42;;;;;;;;;;4996649;28;20046;-74
2021/11/24 05:55:05;;;;;;;74.22;49.35;;;;;;;;;;4997006;28;20049;-74
2021/11/24 05:57:31;;;;;;;69.63;46.80;;;;;;;;;;4996739;28;20019;-74
2021/11/24 05:59:57;;;;;;;78.80;49.60;;;;;;;;;;4996921;28;20029;-73
2021/11/24 06:02:23;;;;;;;84.97;55.35;;;;;;;;;;4996345;28;20026;-74
2021/11/24 06:04:49;;;;;;;74.75;49.92;;;;;;;;;;4996524;28;20080;-73
2021/11/24 06:07:15;;;;;;;74.13;51.35;;;;;;;;;;4996238;28;20105;-72
2021/11/24 06:09:41;;;;;;;74.53;52.05;;;179.70;2252.80;;;;;;4995529;28;20405;-71
2021/11/24 06:12:07;;;;;;;76.47;51.63;;;179.70;2252.80;;;;;;4996445;28;20038;-70
2021/11/24 06:14:33;;;;;;;68.45;46.08;;;;;;;;;;4996224;28;20160;-72
2021/11/24 06:16:59;;;;;;;81.38;47.38;;;;;;;;;;4996420;28;20389;-72
2021/11/24 06:19:25;;;;;;;73.18;46.75;;;;;;;;;;4996400;28;20022;-72
2021/11/24 06:21:51;;;;;;;82.75;51.15;;;;;;;;;;4996403;28;20026;-72
2021/11/24 06:24:17;;;;;;;76.68;49.17;;;;;;;;;;4995143;28;20033;-71
2021/11/24 06:26:43;;;;;;;76.32;53.60;;;;;;;;;;4996066;28;20478;-73
2021/11/24 06:29:10;;;;;;;91.75;59.45;;;;;;;;;;4996150;28;20026;-73
2021/11/24 06:31:36;;;;;;;130.00;64.78;;;;;;;;;;4995671;28;20034;-74
2021/11/24 06:34:02;;;;;;;139.15;85.30;;;;;;;;;;4996013;28;20022;-74
2021/11/24 06:36:28;;;;;;;120.30;82.15;;;;;;;;;;4995794;28;20037;-74
2021/11/24 06:38:55;;;;;;;135.80;85.60;;;;;;;;;;4996050;28;20028;-72
2021/11/24 06:41:21;;;;;;;132.38;82.97;;;;;;;;;;4995798;28;20481;-72
2021/11/24 06:43:47;;;;;;;136.30;85.97;;;;;;;;;;4995648;28;20470;-72
2021/11/24 06:46:13;;;;;;;164.00;96.95;;;;;;;;;;4995470;28;20046;-71
2021/11/24 06:48:39;;;;;;;189.85;116.25;;;205.40;2252.80;;;;;;4995584;28;20038;-72
2021/11/24 06:51:05;;;;;;;165.63;108.72;;;;;;;;;;4995617;28;20034;-72
2021/11/24 06:53:31;;;;;;;177.98;121.82;;;;;;;;;;4995875;28;20031;-72
2021/11/24 06:55:57;;;;;;;174.75;114.75;;;;;;;;;;4995781;28;20025;-72
2021/11/24 06:58:23;;;;;;;159.95;111.93;;;;;;;;;;4995391;28;20024;-73
2021/11/24 07:00:49;;;;;;;166.68;113.07;;;205.50;2252.80;;;;;;4995653;28;20038;-71
2021/11/24 07:03:15;;;;;;;131.05;92.15;;;;;;;;;;4995358;28;20479;-72
2021/11/24 07:05:41;;;;;;;159.57;104.28;;;;;;;;;;4995435;28;20027;-70
2021/11/24 07:08:07;;;;;;;195.68;136.70;;;;;;;;;;4995549;28;20022;-71
2021/11/24 07:10:34;;;;;;;145.77;100.75;;;;;;;;;;4995072;28;20034;-72
2021/11/24 07:13:00;;;;;;;138.30;92.82;;;;;;;;;;4995305;28;20031;-73
2021/11/24 07:15:26;;;;;;;140.27;92.80;;;;;;;;;;4995151;28;20035;-72
2021/11/24 07:17:53;;;;;;;141.13;100.95;;;;;;;;;;4995016;28;20041;-72
2021/11/24 07:20:18;;;;;;;134.23;92.82;;;230.60;2252.80;;;;;;4995352;28;20041;-71
2021/11/24 07:22:44;;;;;;;131.23;89.28;;;230.60;2252.80;;;;;;4995097;28;20030;-70
2021/11/24 07:25:11;;;;;;;136.52;92.00;;;230.80;2201.60;;;;;;4995212;28;20112;-71
2021/11/24 07:27:37;;;;;;;122.97;83.80;;;;;;;;;;4995345;28;20022;-69
2021/11/24 07:30:03;;;;;;;181.75;122.05;;;;;;;;;;4995126;28;20457;-72
2021/11/24 07:32:30;;;;;;;126.00;88.57;;;;;;;;;;4994574;28;20057;-72
2021/11/24 07:34:56;;;;;;;141.82;98.65;;;;;;;;;;4993716;28;20025;-72
2021/11/24 07:37:22;;;;;;;139.60;84.63;;;;;;;;;;4994894;28;20022;-72
2021/11/24 07:39:48;;;;;;;137.48;84.20;;;;;;;;;;4994846;28;20023;-72
2021/11/24 07:42:14;;;;;;;159.88;105.30;;;;;;;;;;4994736;28;20026;-71
2021/11/24 07:44:40;;;;;;;165.40;101.25;;;;;;;;;;4993911;28;20466;-72
2021/11/24 07:47:06;;;;;;;154.43;96.30;;;;;;;;;;4994367;28;20061;-72
2021/11/24 07:49:32;;;;;;;151.50;95.07;;;;;;;;;;4994631;28;20029;-72
2021/11/24 07:51:59;;;;;;;167.52;99.10;;;;;;;;;;4994634;28;20409;-72
2021/11/24 07:54:25;;;;;;;163.77;100.75;;;;;;;;;;4994544;28;20393;-72
2021/11/24 07:56:51;;;;;;;173.70;104.43;;;;;;;;;;4994587;28;20101;-72
2021/11/24 07:59:17;;;;;;;176.90;102.85;;;;;;;;;;4994470;28;20529;-73
2021/11/24 08:01:44;;;;;;;180.80;102.15;;;;;;;;;;4994284;28;20030;-71
2021/11/24 08:04:10;;;;;;;184.57;108.72;;;;;;;;;;4994201;28;20018;-72
2021/11/24 08:06:36;;;;;;;199.52;123.47;;;;;;;;;;4994401;28;20030;-72
2021/11/24 08:09:03;;;;;;;244.73;146.07;;;;;;;;;;4994142;28;20474;-72
2021/11/24 08:11:29;;;;;;;153.90;91.30;;;;;;;;;;4993906;28;20042;-72
2021/11/24 08:13:56;;;;;;;164.73;100.38;;;282.00;2073.60;;;;;;4994441;28;20053;-71
2021/11/24 08:16:21;;;;;;;189.98;119.30;;;282.00;2048.00;;;;;;4994107;28;20101;-71
2021/11/24 08:18:47;;;;;;;152.40;93.50;;;282.20;2048.00;;;;;;4993981;28;20466;-71
2021/11/24 08:21:13;;;;;;;146.63;79.72;;;282.20;2022.40;;;;;;4994190;28;20033;-71
2021/11/24 08:23:39;;;;;;;142.82;86.07;;;;;;;;;;4994005;28;20488;-74
2021/11/24 08:26:05;;;;;;;150.35;95.15;;;332.90;1920.00;;;;;;4994271;28;20500;-73
2021/11/24 08:28:31;;;;;;;165.50;101.28;;;333.30;1868.80;;;;;;4993899;28;20027;-72
2021/11/24 08:30:57;;;;;;;162.85;95.13;;;333.70;2022.40;;;;;;4993844;28;20092;-74
2021/11/24 08:33:23;;;;;;;155.15;94.63;;;;;;;;;;4994035;28;20433;-73
2021/11/24 08:35:49;;;;;;;144.13;90.97;;;358.60;1766.40;;;;;;4993746;28;20026;-71
2021/11/24 08:38:16;;;;;;;176.52;109.85;;;358.50;1740.80;;;;;;4993642;28;20085;-72
2021/11/24 08:40:42;;;;;;;151.35;91.25;;;358.70;1740.80;;;;;;4993673;28;20029;-72
2021/11/24 08:43:09;;;;;;;134.63;81.22;;;;;;;;;;4993760;28;20098;-72
2021/11/24 08:45:35;;;;;;;125.93;84.05;;;;;;;;;;4992347;28;20060;-73
2021/11/24 08:48:03;;;;;;;132.63;81.78;;;;;;;;;;4993633;28;20073;-70
2021/11/24 08:50:30;;;;;;;151.93;83.82;;;;;;;;;;4993292;28;20038;-74
2021/11/24 08:52:56;;;;;;;128.07;80.88;;;;;;;;;;4993608;28;20026;-74
2021/11/24 08:55:22;;;;;;;118.75;78.10;;;;;;;;;;4993542;28;20076;-74
2021/11/24 08:57:49;;;;;;;103.38;69.85;;;;;;;;;;4993513;28;20022;-74
2021/11/24 09:00:17;;;;;;;137.95;88.85;;;;;;;;;;4993350;28;20453;-73
2021/11/24 09:02:43;;;;;;;136.02;92.45;;;;;;;;;;4993528;28;20404;-72
2021/11/24 09:05:10;;;;;;;120.60;79.47;;;;;;;;;;4993426;28;20088;-74
2021/11/24 09:07:36;;;;;;;106.65;72.40;;;;;;;;;;4991891;28;20034;-72
2021/11/24 09:10:04;;;;;;;111.25;78.55;;;;;;;;;;4992309;28;20034;-75
2021/11/24 09:12:30;;;;;;;130.07;85.88;;;;;;;;;;4993205;28;20393;-72
2021/11/24 09:14:56;;;;;;;131.25;91.38;;;666.50;768.00;;;;;;4993341;28;20034;-72
2021/11/24 09:17:22;;;;;;;143.50;98.20;;;;;;;;;;4993620;28;20038;-73
2021/11/24 09:19:49;;;;;;;123.57;86.95;;;;;;;;;;4993568;28;20033;-74
2021/11/24 09:22:15;;;;;;;107.72;79.45;;;;;;;;;;4993242;28;20026;-72
2021/11/24 09:24:41;;;;;;;117.00;82.95;;;;;;;;;;4993254;28;20080;-72
2021/11/24 09:27:15;;;;;;;107.03;74.15;;;;;;;;;;4993224;28;20022;-73
2021/11/24 09:29:41;;;;;;;142.07;96.50;;;;;;;;;;4993166;28;20031;-72
2021/11/24 09:32:07;;;;;;;112.15;78.55;;;;;;;;;;4992189;28;20514;-72
2021/11/24 09:34:33;;;;;;;120.88;88.18;;;;;;;;;;4992979;28;20109;-73
2021/11/24 09:37:00;;;;;;;92.95;66.63;;;;;;;;;;4993042;28;20385;-74
2021/11/24 09:39:26;;;;;;;126.10;95.78;;;;;;;;;;4993073;28;20038;-74
2021/11/24 09:41:53;;;;;;;170.52;122.13;;;;;;;;;;4993018;28;20389;-72
2021/11/24 09:44:19;;;;;;;158.00;107.35;;;;;;;;;;4993117;28;20035;-72
2021/11/24 09:46:50;;;;;;;96.15;70.43;;;;;;;;;;4992937;28;20497;-73
2021/11/24 09:49:17;;;;;;;93.20;60.10;;;;;;;;;;4992748;28;20117;-72
2021/11/24 09:51:44;;;;;;;83.43;59.63;;;;;;;;;;4992963;28;20378;-72
2021/11/24 09:54:12;;;;;;;80.03;59.83;;;1049.80;409.60;;;;;;4993319;28;20018;-73
2021/11/24 09:56:40;;;;;;;86.15;61.83;;;;;;;;;;4992979;28;20109;-74
2021/11/24 09:59:07;;;;;;;78.68;60.72;;;;;;;;;;4992845;28;20486;-73
2021/11/24 10:01:33;;;;;;;92.10;73.93;;;948.10;435.20;;;;;;4992953;28;20026;-73
2021/11/24 10:04:00;;;;;;;112.18;67.45;;;;;;;;;;4992914;28;20581;-73
2021/11/24 10:06:30;;;;;;;81.18;68.75;;;;;;;;;;4993252;28;20449;-74
2021/11/24 10:08:56;;;;;;;73.18;58.35;;;;;;;;;;4996338;28;20029;-73
2021/11/24 10:11:22;;;;;;;74.60;57.10;;;;;;;;;;4996381;28;20062;-74
2021/11/24 10:13:49;;;;;;;78.43;55.88;;;;;;;;;;4995579;28;20409;-74
2021/11/24 10:16:22;;;;;;;60.90;43.17;;;;;;;;;;4996581;28;20413;-74
2021/11/24 10:18:59;;;;;;;69.07;46.13;;;;;;;;;;4996677;28;20081;-75
2021/11/24 10:21:25;;;;;;;63.88;45.45;;;;;;;;;;4996498;28;20033;-73
2021/11/24 10:23:52;;;;;;;60.50;40.60;;;;;;;;;;4996327;28;20089;-73
2021/11/24 10:26:29;;;;;;;61.30;42.45;;;1126.70;409.60;;;;;;4996172;28;20022;-72
2021/11/24 10:29:08;;;;;;;62.25;41.17;;;1152.10;409.60;;;;;;4995924;28;20026;-74
2021/11/24 10:31:38;;;;;;;71.45;40.80;;;;;;;;;;4995939;28;20084;-72
2021/11/24 10:34:12;;;;;;;79.05;47.30;;;1178.00;409.60;;;;;;4996329;28;20065;-74
2021/11/24 10:36:49;;;;;;;78.30;46.33;;;;;;;;;;4996020;28;20506;-73
2021/11/24 10:39:15;;;;;;;53.40;32.67;;;;;;;;;;4996229;28;20469;-72
2021/11/24 10:41:41;;;;;;;48.33;33.65;;;1024.10;384.00;;;;;;4995619;28;20076;-72
2021/11/24 10:44:08;;;;;;;39.47;31.08;;;;;;;;;;4996017;28;20022;-74
2021/11/24 10:46:36;;;;;;;41.10;30.13;;;1126.60;409.60;;;;;;4995504;28;20050;-74
2021/11/24 10:49:04;;;;;;;48.58;36.10;;;;;;;;;;4996027;28;20036;-70
2021/11/24 10:51:42;;;;;;;63.60;37.03;;;1178.20;409.60;;;;;;4995849;28;20080;-73
2021/11/24 10:54:09;;;;;;;45.75;34.88;;;;;;;;;;4995823;28;20023;-73
2021/11/24 10:57:00;;;;;;;49.97;33.05;;;1203.40;435.20;;;;;;4995628;28;20026;-73
2021/11/24 10:59:27;;;;;;;29.20;25.98;;;;;;;;;;4994337;28;20396;-73
2021/11/24 11:02:13;;;;;;;24.33;20.15;;;;;;;;;;4995516;28;20019;-74
2021/11/24 11:04:55;;;;;;;32.97;20.58;;;;;;;;;;4995339;28;20038;-74
2021/11/24 11:07:21;;;;;;;20.85;17.08;;;;;;;;;;4995655;28;20473;-73
2021/11/24 11:09:47;;;;;;;22.67;16.15;;;1152.60;409.60;;;;;;4995210;28;20026;-73
2021/11/24 11:12:13;;;;;;;37.45;22.40;;;;;;;;;;4995662;28;20042;-74
2021/11/24 11:14:40;;;;;;;32.60;20.92;;;;;;;;;;4994198;28;20034;-72
2021/11/24 11:17:05;;;;;;;24.13;20.23;;;1228.80;460.80;;;;;;4995532;28;20031;-72
2021/11/24 11:19:38;;;;;;;23.50;19.63;;;;;;;;;;4993851;28;20035;-74
2021/11/24 11:22:05;;;;;;;22.38;16.88;;;;;;;;;;4995372;28;20121;-74
2021/11/24 11:24:31;;;;;;;28.80;18.75;;;;;;;;;;4995075;28;20533;-75
2021/11/24 11:26:57;;;;;;;25.25;20.10;;;;;;;;;;4995323;28;20034;-74
2021/11/24 11:29:24;;;;;;;19.95;17.27;;;;;;;;;;4995175;28;20081;-74
2021/11/24 11:31:50;;;;;;;22.92;13.73;;;;;;;;;;4994989;28;20034;-74
2021/11/24 11:34:16;;;;;;;31.50;22.23;;;1203.60;435.20;;;;;;4994857;28;20033;-72
2021/11/24 11:36:43;;;;;;;19.95;17.08;;;1203.20;435.20;;;;;;4994599;28;20022;-71
2021/11/24 11:39:09;;;;;;;24.05;17.90;;;;;;;;;;4994630;28;20128;-74
2021/11/24 11:41:36;;;;;;;54.05;38.60;;;;;;;;;;4994986;28;20061;-74
2021/11/24 11:44:04;;;;;;;30.98;22.77;;;;;;;;;;4994940;28;20082;-74
2021/11/24 11:46:34;;;;;;;23.60;18.50;;;;;;;;;;4994558;28;20085;-73
2021/11/24 11:49:11;;;;;;;65.55;46.85;;;;;;;;;;4994522;28;20072;-70
2021/11/24 11:51:38;;;;;;;31.58;25.10;;;;;;;;;;4994344;28;20045;-74
2021/11/24 11:54:05;;;;;;;31.90;23.42;;;;;;;;;;4994370;28;20117;-74
2021/11/24 11:56:34;;;;;;;20.10;15.65;;;;;;;;;;4994484;28;20025;-74
2021/11/24 11:59:05;;;;;;;23.60;18.98;;;;;;;;;;4994787;28;20023;-74
2021/11/24 12:01:31;;;;;;;26.42;18.40;;;;;;;;;;4994758;28;20026;-73
2021/11/24 12:04:17;;;;;;;23.63;18.40;;;;;;;;;;4994478;28;20022;-75
2021/11/24 12:06:47;;;;;;;19.85;17.30;;;1049.60;358.40;;;;;;4994317;28;20141;-75
2021/11/24 12:09:17;;;;;;;28.02;16.85;;;;;;;;;;4993419;28;20038;-74
2021/11/24 12:12:05;;;;;;;20.83;15.60;;;1101.70;384.00;;;;;;4994526;28;20046;-72
2021/11/24 12:14:45;;;;;;;16.60;13.95;;;1126.50;409.60;;;;;;4994158;28;20551;-68
2021/11/24 12:17:33;;;;;;;13.82;12.10;;;;;;;;;;4994492;28;20109;-73
2021/11/24 12:20:01;;;;;;;16.70;12.98;;;;;;;;;;4994213;28;20046;-73
2021/11/24 12:22:49;;;;;;;17.10;14.32;;;;;;;;;;4993604;28;20437;-71
2021/11/24 12:28:00;;;;;;;25.88;16.52;;;;;;;;;;4994122;28;20073;-74
2021/11/24 12:33:27;;;;;;;34.00;17.15;;;1050.30;358.40;;;;;;4993925;28;20496;-73
2021/11/24 12:36:10;;;;;;;21.02;16.15;;;896.80;384.00;;;;;;4993773;28;20029;-74
2021/11/24 12:38:41;;;;;;;23.88;16.95;;;;;;;;;;4993524;28;20581;-74
2021/11/24 12:41:10;;;;;;;25.40;16.88;;;;;;;;;;4993840;28;20030;-75
2021/11/24 12:43:39;;;;;;;23.83;16.85;;;;;;;;;;4993593;28;20030;-72
2021/11/24 12:46:10;;;;;;;29.42;20.10;;;998.80;358.40;;;;;;4993428;28;20052;-73
2021/11/24 12:48:43;;;;;;;22.42;18.52;;;;;;;;;;4993628;28;20030;-74
2021/11/24 12:51:30;;;;;;;29.45;22.27;;;922.00;409.60;;;;;;4992262;28;20034;-73
2021/11/24 12:54:12;;;;;;;24.55;17.75;;;;;;;;;;4993021;28;20034;-73
2021/11/24 12:56:40;;;;;;;28.55;17.98;;;921.90;384.00;;;;;;4993693;28;20031;-74
2021/11/24 12:59:07;;;;;;;21.60;17.02;;;;;;;;;;4993679;28;20053;-74
2021/11/24 13:01:54;;;;;;;28.33;22.45;;;;;;;;;;4993548;28;20027;-75
2021/11/24 13:04:21;;;;;;;28.48;20.13;;;;;;;;;;4993216;28;20084;-75
2021/11/24 13:06:52;;;;;;;27.60;22.20;;;;;;;;;;4993424;28;20034;-74
2021/11/24 13:09:19;;;;;;;34.50;25.70;;;;;;;;;;4993358;28;20023;-75
2021/11/24 13:11:56;;;;;;;30.40;24.23;;;;;;;;;;4993215;28;20072;-74
2021/11/24 13:14:23;;;;;;;19.65;16.10;;;;;;;;;;4993423;28;20022;-76
2021/11/24 13:17:08;;;;;;;21.45;19.10;;;;;;;;;;4993501;28;20035;-75
2021/11/24 13:20:00;;;;;;;22.83;16.15;;;;;;;;;;4993268;28;20036;-75
2021/11/24 13:22:34;;;;;;;26.35;16.67;;;768.60;486.40;;;;;;4991227;28;20078;-73
2021/11/24 13:25:02;;;;;;;19.73;16.20;;;;;;;;;;4993225;28;20438;-76
2021/11/24 13:27:38;;;;;;;22.02;17.67;;;;;;;;;;4993466;28;20381;-75
2021/11/24 13:30:05;;;;;;;23.17;16.38;;;;;;;;;;4993424;28;20599;-75